Time;durP1;ratioP1;P1;durP2;ratioP2;P2;SDS_P1;SDS_P2;PMS_P1;PMS_P2;Temp;Humidity;BMP_temperature;BMP_pressure;BME280_temperature;BME280_humidity;BME280_pressure;Samples;Min_cycle;Max_cycle;Signal;HPM_P1;HPM_P2
2023/08/25 00:02:20;;;;;;;3.50;3.10;;;22.30;99.90;;;;;;5040717;28;20194;-75
2023/08/25 00:04:46;;;;;;;4.50;2.90;;;22.30;99.90;;;;;;5038825;28;20209;-75
2023/08/25 00:07:11;;;;;;;3.33;3.07;;;22.30;99.90;;;;;;5046228;28;20982;-75
2023/08/25 00:09:37;;;;;;;2.77;2.57;;;22.40;99.90;;;;;;5043204;28;20460;-75
2023/08/25 00:12:03;;;;;;;3.33;3.13;;;22.40;99.90;;;;;;5039889;28;20274;-75
2023/08/25 00:14:29;;;;;;;3.03;2.80;;;22.50;99.90;;;;;;5040447;28;20184;-75
2023/08/25 00:16:55;;;;;;;3.13;2.77;;;22.50;99.90;;;;;;5043155;28;20198;-74
2023/08/25 00:19:21;;;;;;;4.10;2.70;;;22.50;99.90;;;;;;5041780;28;20432;-76
2023/08/25 00:21:46;;;;;;;2.90;2.60;;;22.60;99.90;;;;;;5038550;28;20813;-74
2023/08/25 00:24:12;;;;;;;2.83;2.50;;;22.60;99.90;;;;;;5045209;28;20185;-73
2023/08/25 00:26:39;;;;;;;2.70;2.50;;;22.60;99.90;;;;;;5041775;28;20703;-75
2023/08/25 00:29:07;;;;;;;3.80;2.50;;;22.60;99.90;;;;;;5044965;28;20530;-74
2023/08/25 00:31:33;;;;;;;2.90;2.53;;;22.60;99.90;;;;;;5043147;28;20835;-73
2023/08/25 00:34:02;;;;;;;3.33;2.63;;;22.70;99.90;;;;;;5033840;28;20435;-73
2023/08/25 00:36:27;;;;;;;4.40;2.90;;;22.70;99.90;;;;;;5037714;28;20582;-75
2023/08/25 00:38:53;;;;;;;3.10;2.50;;;22.60;99.90;;;;;;5042584;28;20444;-76
2023/08/25 00:41:19;;;;;;;4.60;2.73;;;22.60;99.90;;;;;;5042474;28;20185;-74
2023/08/25 00:43:45;;;;;;;3.20;3.00;;;22.60;99.90;;;;;;5046878;28;20436;-74
2023/08/25 00:46:11;;;;;;;2.60;2.50;;;22.70;99.90;;;;;;5037442;28;20278;-76
2023/08/25 00:48:38;;;;;;;2.90;2.70;;;22.70;99.90;;;;;;5037393;28;20186;-73
2023/08/25 00:51:05;;;;;;;3.00;2.73;;;22.60;99.90;;;;;;5043777;28;20838;-74
2023/08/25 00:53:34;;;;;;;2.67;2.47;;;22.60;99.90;;;;;;5038686;28;20456;-76
2023/08/25 00:56:02;;;;;;;5.00;3.10;;;22.60;99.90;;;;;;5040531;28;20520;-75
2023/08/25 00:58:27;;;;;;;3.00;2.80;;;22.70;99.90;;;;;;5043801;28;20436;-72
2023/08/25 01:00:53;;;;;;;3.10;2.80;;;22.70;99.90;;;;;;5042615;28;20525;-74
2023/08/25 01:03:19;;;;;;;3.77;3.00;;;22.80;99.90;;;;;;5042645;28;20227;-75
2023/08/25 01:05:48;;;;;;;2.53;2.37;;;22.80;99.90;;;;;;5039759;28;20475;-74
2023/08/25 01:08:19;;;;;;;4.20;3.10;;;22.80;99.90;;;;;;5045152;28;20200;-75
2023/08/25 01:11:14;;;;;;;2.80;2.40;;;22.80;99.90;;;;;;5062011;28;20514;-75
2023/08/25 01:13:50;;;;;;;3.00;2.70;;;22.80;99.90;;;;;;5010361;28;20438;-75
2023/08/25 01:16:20;;;;;;;3.27;2.80;;;22.80;99.90;;;;;;5060595;28;21191;-75
2023/08/25 01:18:45;;;;;;;3.20;2.67;;;22.80;99.90;;;;;;5058756;28;20464;-73
2023/08/25 01:21:12;;;;;;;2.83;2.53;;;22.90;99.90;;;;;;5044992;28;20475;-75
2023/08/25 01:24:15;;;;;;;2.83;2.60;;;22.90;99.90;;;;;;5047724;28;20198;-76
2023/08/25 01:26:41;;;;;;;2.60;2.40;;;23.10;99.90;;;;;;5039698;28;21019;-75
2023/08/25 01:29:07;;;;;;;3.27;2.77;;;23.20;99.90;;;;;;5041534;28;20425;-76
2023/08/25 01:31:33;;;;;;;3.00;2.80;;;23.20;99.90;;;;;;5045728;28;20866;-75
2023/08/25 01:34:01;;;;;;;3.17;2.23;;;23.30;99.90;;;;;;5041103;28;20186;-76
2023/08/25 01:36:34;;;;;;;2.63;2.43;;;23.40;99.90;;;;;;5039285;28;20212;-75
2023/08/25 01:39:03;;;;;;;5.50;2.80;;;23.50;99.90;;;;;;5043337;28;20452;-75
2023/08/25 01:41:52;;;;;;;4.97;2.70;;;23.60;99.90;;;;;;5044143;28;20451;-76
2023/08/25 01:44:19;;;;;;;2.93;2.50;;;23.60;99.90;;;;;;5047297;28;20527;-75
2023/08/25 01:46:50;;;;;;;3.07;2.77;;;23.60;99.90;;;;;;5044204;28;20460;-76
2023/08/25 01:49:17;;;;;;;3.17;2.83;;;23.50;99.90;;;;;;5042987;28;20859;-74
2023/08/25 01:51:44;;;;;;;2.70;2.43;;;23.50;99.90;;;;;;5048653;28;21279;-77
2023/08/25 01:54:10;;;;;;;2.70;2.50;;;23.30;99.90;;;;;;5046759;28;20432;-75
2023/08/25 01:56:36;;;;;;;3.10;2.60;;;23.30;99.90;;;;;;5044857;28;20507;-74
2023/08/25 01:59:02;;;;;;;2.80;2.50;;;23.30;99.90;;;;;;5045366;28;20433;-74
2023/08/25 02:01:30;;;;;;;2.80;2.33;;;23.20;99.90;;;;;;5048803;28;20198;-76
2023/08/25 02:03:56;;;;;;;2.90;2.70;;;23.20;99.90;;;;;;5042743;28;20196;-74
2023/08/25 02:06:22;;;;;;;2.77;2.57;;;23.20;99.90;;;;;;5047183;28;20470;-76
2023/08/25 02:08:47;;;;;;;3.07;2.77;;;23.10;99.90;;;;;;5049365;28;20440;-75
2023/08/25 02:11:13;;;;;;;3.90;3.00;;;23.10;99.90;;;;;;5044031;28;20244;-76
2023/08/25 02:13:39;;;;;;;2.63;2.43;;;23.10;99.90;;;;;;5045772;28;20269;-76
2023/08/25 02:16:04;;;;;;;2.50;2.30;;;23.00;99.90;;;;;;5046339;28;20197;-78
2023/08/25 02:18:30;;;;;;;2.60;2.40;;;23.00;99.90;;;;;;5041382;28;20232;-75
2023/08/25 02:20:56;;;;;;;3.07;2.57;;;23.40;99.90;;;;;;5046879;28;20264;-73
2023/08/25 02:23:22;;;;;;;2.70;2.50;;;22.90;99.90;;;;;;5039212;28;20216;-74
2023/08/25 02:25:47;;;;;;;3.30;3.00;;;22.90;99.90;;;;;;5046078;28;20457;-74
2023/08/25 02:28:13;;;;;;;3.43;3.03;;;22.80;99.90;;;;;;5044665;28;20446;-75
2023/08/25 02:30:39;;;;;;;2.47;2.27;;;22.80;99.90;;;;;;5046524;28;20252;-73
2023/08/25 02:33:04;;;;;;;2.77;2.57;;;22.70;99.90;;;;;;5043341;28;20556;-75
2023/08/25 02:35:30;;;;;;;3.03;2.70;;;22.70;99.90;;;;;;5044549;28;20206;-75
2023/08/25 02:38:00;;;;;;;2.87;2.63;;;22.70;99.90;;;;;;5042757;28;20201;-75
2023/08/25 02:40:27;;;;;;;5.43;2.90;;;22.60;99.90;;;;;;5045395;28;20190;-73
2023/08/25 02:42:54;;;;;;;4.13;2.70;;;22.60;99.90;;;;;;5041219;28;20436;-75
2023/08/25 02:45:22;;;;;;;3.33;3.00;;;22.50;99.90;;;;;;5042383;28;20436;-73
2023/08/25 02:47:48;;;;;;;3.20;2.80;;;22.50;99.90;;;;;;5044358;28;20452;-75
2023/08/25 02:50:14;;;;;;;3.37;2.87;;;22.50;99.90;;;;;;5039516;28;21007;-73
2023/08/25 02:52:39;;;;;;;3.43;2.70;;;22.50;99.90;;;;;;5040028;28;20242;-77
2023/08/25 02:55:05;;;;;;;3.03;2.73;;;22.50;99.90;;;;;;5040939;28;20178;-77
2023/08/25 02:57:31;;;;;;;3.23;2.93;;;22.10;99.90;;;;;;5042843;28;20202;-72
2023/08/25 02:59:56;;;;;;;3.13;2.83;;;22.50;99.90;;;;;;5047767;28;20447;-72
2023/08/25 03:02:22;;;;;;;3.23;2.80;;;22.40;99.90;;;;;;5041795;28;20190;-73
2023/08/25 03:04:47;;;;;;;3.17;2.87;;;22.40;99.90;;;;;;5038589;28;20186;-74
2023/08/25 03:07:13;;;;;;;2.73;2.53;;;22.40;99.90;;;;;;5041620;28;20316;-74
2023/08/25 03:09:39;;;;;;;3.97;3.30;;;22.30;99.90;;;;;;5044240;28;20209;-74
2023/08/25 03:12:05;;;;;;;3.10;2.80;;;22.30;99.90;;;;;;5043430;28;20186;-75
2023/08/25 03:14:30;;;;;;;2.77;2.53;;;22.30;99.90;;;;;;5040140;28;20198;-76
2023/08/25 03:16:56;;;;;;;3.13;2.73;;;22.20;99.90;;;;;;5044741;28;20458;-73
2023/08/25 03:19:21;;;;;;;3.20;2.80;;;22.20;99.90;;;;;;5038925;28;20186;-75
2023/08/25 03:21:47;;;;;;;3.50;3.20;;;22.20;99.90;;;;;;5043027;28;20649;-75
2023/08/25 03:24:13;;;;;;;3.30;2.73;;;22.10;99.90;;;;;;5043059;28;20186;-74
2023/08/25 03:26:38;;;;;;;3.43;2.90;;;22.10;99.90;;;;;;5044097;28;20259;-73
2023/08/25 03:29:04;;;;;;;3.23;2.93;;;22.00;99.90;;;;;;5041832;28;20259;-75
2023/08/25 03:31:30;;;;;;;3.10;2.90;;;22.10;99.90;;;;;;5038856;28;20709;-76
2023/08/25 03:33:55;;;;;;;3.53;2.40;;;22.00;99.90;;;;;;5047271;28;20185;-73
2023/08/25 03:36:21;;;;;;;3.23;2.90;;;22.00;99.90;;;;;;5044947;28;20578;-77
2023/08/25 03:38:46;;;;;;;3.93;3.07;;;22.00;99.90;;;;;;5041718;28;20186;-74
2023/08/25 03:41:12;;;;;;;3.47;3.17;;;22.00;99.90;;;;;;5041753;28;20186;-76
2023/08/25 03:43:38;;;;;;;3.27;3.00;;;22.00;99.90;;;;;;5039014;28;20192;-73
2023/08/25 03:46:03;;;;;;;2.97;2.77;;;21.90;99.90;;;;;;5040465;28;20296;-74
2023/08/25 03:48:29;;;;;;;2.73;2.53;;;21.60;99.90;;;;;;5047127;28;20197;-75
2023/08/25 03:50:55;;;;;;;3.93;2.93;;;21.90;99.90;;;;;;5038389;28;20992;-76
2023/08/25 03:53:21;;;;;;;2.87;2.67;;;21.80;99.90;;;;;;5044928;28;20235;-74
2023/08/25 03:55:47;;;;;;;4.50;3.30;;;21.80;99.90;;;;;;5043537;28;20239;-75
2023/08/25 03:58:13;;;;;;;3.17;2.90;;;21.80;99.90;;;;;;5040674;28;20959;-73
2023/08/25 04:00:38;;;;;;;3.50;2.93;;;21.80;99.90;;;;;;5045666;28;20740;-75
2023/08/25 04:03:06;;;;;;;5.10;3.30;;;21.80;99.90;;;;;;5037985;28;20456;-74
2023/08/25 04:05:32;;;;;;;3.30;3.00;;;21.80;99.90;;;;;;5038086;28;20190;-74
2023/08/25 04:07:57;;;;;;;3.40;3.07;;;21.80;99.90;;;;;;5046790;28;20490;-75
2023/08/25 04:10:23;;;;;;;3.67;3.47;;;21.80;99.90;;;;;;5042570;28;20562;-74
2023/08/25 04:12:49;;;;;;;3.40;3.10;;;21.80;99.90;;;;;;5045187;28;20181;-74
2023/08/25 04:15:15;;;;;;;3.13;2.83;;;21.80;99.90;;;;;;5045599;28;20492;-75
2023/08/25 04:17:40;;;;;;;4.63;3.00;;;21.80;99.90;;;;;;5039677;28;20205;-74
2023/08/25 04:20:06;;;;;;;3.20;2.80;;;21.80;99.90;;;;;;5036105;28;20181;-74
2023/08/25 04:22:32;;;;;;;5.00;3.50;;;21.80;99.90;;;;;;5042789;28;20288;-74
2023/08/25 04:24:58;;;;;;;4.23;3.20;;;21.90;99.90;;;;;;5040511;28;20544;-74
2023/08/25 04:27:23;;;;;;;3.53;3.23;;;21.80;99.90;;;;;;5041719;28;20221;-73
2023/08/25 04:29:51;;;;;;;3.63;3.33;;;21.80;99.90;;;;;;5042437;28;20596;-72
2023/08/25 04:32:16;;;;;;;3.47;2.97;;;21.80;99.90;;;;;;5039291;28;20189;-74
2023/08/25 04:34:42;;;;;;;3.27;3.00;;;21.80;99.90;;;;;;5039072;28;20436;-75
2023/08/25 04:37:08;;;;;;;5.07;3.17;;;21.80;99.90;;;;;;5037500;28;20709;-74
2023/08/25 04:39:33;;;;;;;5.40;3.50;;;21.80;99.90;;;;;;5039108;28;20194;-75
2023/08/25 04:42:00;;;;;;;3.73;3.10;;;21.80;99.90;;;;;;5051200;28;20219;-74
2023/08/25 04:44:25;;;;;;;3.33;3.03;;;21.90;99.90;;;;;;5037160;28;20330;-75
2023/08/25 04:46:51;;;;;;;4.10;3.70;;;22.00;99.90;;;;;;5042683;28;20937;-77
2023/08/25 04:49:17;;;;;;;3.47;3.17;;;22.10;99.90;;;;;;5037518;28;20185;-66
2023/08/25 04:51:42;;;;;;;5.37;3.67;;;22.10;99.90;;;;;;5039323;28;20651;-67
2023/08/25 04:54:09;;;;;;;4.27;3.30;;;22.10;99.90;;;;;;5046417;28;20294;-66
2023/08/25 04:56:35;;;;;;;5.27;3.60;;;22.10;99.90;;;;;;5040370;28;20218;-63
2023/08/25 04:59:00;;;;;;;8.53;3.90;;;22.20;99.90;;;;;;5044791;28;20513;-66
2023/08/25 05:01:26;;;;;;;5.83;3.00;;;22.10;99.90;;;;;;5038983;28;20364;-68
2023/08/25 05:03:51;;;;;;;3.87;3.57;;;22.10;99.90;;;;;;5042997;28;20632;-68
2023/08/25 05:06:17;;;;;;;4.47;3.80;;;21.90;99.90;;;;;;5045144;28;20205;-65
2023/08/25 05:08:44;;;;;;;4.50;3.07;;;21.60;99.90;;;;;;5044101;28;20543;-64
2023/08/25 05:11:10;;;;;;;4.80;3.50;;;21.70;99.90;;;;;;5044150;28;20277;-65
2023/08/25 05:13:35;;;;;;;3.67;3.40;;;21.70;99.90;;;;;;5043708;28;20932;-64
2023/08/25 05:16:01;;;;;;;4.17;3.77;;;21.60;99.90;;;;;;5044275;28;20248;-65
2023/08/25 05:18:26;;;;;;;4.33;3.93;;;21.50;99.90;;;;;;5042983;28;20186;-65
2023/08/25 05:20:58;;;;;;;3.63;3.33;;;21.50;99.90;;;;;;5045125;28;20202;-66
2023/08/25 05:23:24;;;;;;;3.78;3.47;;;21.60;99.90;;;;;;5041882;28;20749;-67
2023/08/25 05:25:49;;;;;;;5.80;3.40;;;21.70;99.90;;;;;;5040270;28;20193;-67
2023/08/25 05:28:15;;;;;;;4.70;4.10;;;21.80;99.90;;;;;;5043316;28;20872;-67
2023/08/25 05:30:45;;;;;;;3.70;3.40;;;22.00;99.90;;;;;;5043253;28;20240;-65
2023/08/25 05:33:11;;;;;;;3.80;3.50;;;22.20;99.90;;;;;;5043977;28;20178;-65
2023/08/25 05:35:37;;;;;;;3.73;3.30;;;22.30;99.90;;;;;;5040621;28;20447;-67
2023/08/25 05:38:03;;;;;;;4.53;4.00;;;22.50;99.90;;;;;;5042428;28;20485;-65
2023/08/25 05:40:29;;;;;;;3.90;3.60;;;22.60;99.90;;;;;;5045745;28;20451;-65
2023/08/25 05:42:54;;;;;;;4.17;3.40;;;22.70;99.90;;;;;;5044898;28;20575;-66
2023/08/25 05:45:20;;;;;;;6.53;4.20;;;22.90;99.90;;;;;;5046702;28;20201;-66
2023/08/25 05:47:45;;;;;;;4.43;3.80;;;23.00;99.90;;;;;;5042021;28;21039;-67
2023/08/25 05:50:11;;;;;;;3.30;3.03;;;23.00;99.90;;;;;;5049454;28;20212;-66
2023/08/25 05:52:37;;;;;;;4.13;3.17;;;23.20;99.90;;;;;;5049456;28;20268;-66
2023/08/25 05:55:03;;;;;;;3.60;3.30;;;23.20;99.90;;;;;;5048064;28;20587;-66
2023/08/25 05:57:28;;;;;;;5.40;4.37;;;23.40;99.90;;;;;;5048525;28;20201;-66
2023/08/25 05:59:54;;;;;;;4.93;3.63;;;23.50;99.90;;;;;;5048503;28;20543;-63
2023/08/25 06:02:19;;;;;;;3.57;3.27;;;23.50;99.90;;;;;;5046489;28;20189;-66
2023/08/25 06:04:45;;;;;;;9.53;3.47;;;23.60;99.90;;;;;;5043085;28;20188;-65
2023/08/25 06:07:11;;;;;;;3.90;3.60;;;23.50;99.90;;;;;;5043398;28;20259;-65
2023/08/25 06:09:36;;;;;;;4.00;3.60;;;23.40;99.90;;;;;;5047177;28;20213;-66
2023/08/25 06:12:02;;;;;;;3.53;3.10;;;23.40;99.90;;;;;;5047407;28;20174;-66
2023/08/25 06:14:30;;;;;;;3.10;2.90;;;23.30;99.90;;;;;;5047062;28;20190;-63
2023/08/25 06:17:00;;;;;;;5.87;3.63;;;23.40;99.90;;;;;;5048022;28;20333;-63
2023/08/25 06:19:25;;;;;;;7.77;3.27;;;23.50;99.90;;;;;;5047240;28;20432;-62
2023/08/25 06:21:51;;;;;;;4.90;3.60;;;23.30;99.90;;;;;;5046014;28;20527;-62
2023/08/25 06:24:16;;;;;;;3.63;3.33;;;23.30;99.90;;;;;;5045009;28;20185;-61
2023/08/25 06:26:42;;;;;;;3.93;3.53;;;23.40;99.90;;;;;;5043820;28;20202;-62
2023/08/25 06:29:08;;;;;;;7.40;3.67;;;23.30;99.90;;;;;;5045334;28;20189;-62
2023/08/25 06:31:33;;;;;;;3.70;3.30;;;23.20;99.90;;;;;;5045552;28;20239;-61
2023/08/25 06:34:02;;;;;;;5.87;3.50;;;23.10;99.90;;;;;;5045079;28;20178;-61
2023/08/25 06:36:32;;;;;;;4.50;4.10;;;23.10;99.90;;;;;;5045482;28;20543;-62
2023/08/25 06:38:58;;;;;;;7.83;4.43;;;23.20;99.90;;;;;;5046488;28;20447;-62
2023/08/25 06:41:24;;;;;;;5.13;3.27;;;23.20;99.90;;;;;;5045674;28;20466;-63
2023/08/25 06:43:50;;;;;;;5.67;3.90;;;23.20;99.90;;;;;;5045893;28;20848;-62
2023/08/25 06:46:16;;;;;;;3.97;3.57;;;23.10;99.90;;;;;;5041644;28;21033;-61
2023/08/25 06:48:42;;;;;;;5.17;3.60;;;23.20;99.90;;;;;;5041282;28;20449;-62
2023/08/25 06:51:08;;;;;;;4.27;3.90;;;23.20;99.90;;;;;;5046152;28;20197;-65
2023/08/25 06:53:34;;;;;;;4.60;4.17;;;23.20;99.90;;;;;;5041270;28;20273;-72
2023/08/25 06:55:59;;;;;;;4.97;4.57;;;23.20;99.90;;;;;;5041385;28;20640;-67
2023/08/25 06:58:25;;;;;;;3.77;3.37;;;23.10;99.90;;;;;;5046368;28;20178;-67
2023/08/25 07:00:52;;;;;;;4.07;3.77;;;23.00;99.90;;;;;;5090164;22;20293;-78
2023/08/25 07:03:17;;;;;;;3.57;2.93;;;23.20;99.90;;;;;;5089325;28;20193;-78
2023/08/25 07:05:43;;;;;;;4.00;3.57;;;23.10;99.90;;;;;;5084090;28;20440;-78
2023/08/25 07:08:08;;;;;;;4.10;3.80;;;23.30;99.90;;;;;;5055103;28;20181;-83
2023/08/25 07:10:35;;;;;;;4.37;4.00;;;23.10;99.90;;;;;;5054442;28;20198;-84
2023/08/25 07:13:00;;;;;;;5.43;3.20;;;23.00;99.90;;;;;;5059070;28;20189;-82
2023/08/25 07:15:26;;;;;;;4.13;3.83;;;23.20;99.90;;;;;;5064780;28;20450;-83
2023/08/25 07:17:51;;;;;;;4.27;3.97;;;22.50;99.90;;;;;;5057997;28;20197;-83
2023/08/25 07:20:17;;;;;;;5.93;4.10;;;22.40;99.90;;;;;;5051648;28;20204;-83
2023/08/25 07:22:43;;;;;;;3.97;3.67;;;22.40;99.90;;;;;;5054118;28;20673;-81
2023/08/25 07:25:09;;;;;;;3.60;3.30;;;22.30;99.90;;;;;;5059808;28;20193;-81
2023/08/25 07:27:34;;;;;;;4.50;4.10;;;22.30;99.90;;;;;;5062260;28;20198;-80
2023/08/25 07:30:00;;;;;;;3.30;2.80;;;22.30;99.90;;;;;;5059376;28;20471;-80
2023/08/25 07:32:26;;;;;;;4.20;3.50;;;22.20;99.90;;;;;;5060342;28;20188;-81
2023/08/25 07:34:52;;;;;;;3.43;3.13;;;22.60;99.90;;;;;;5067271;28;20212;-80
2023/08/25 07:37:17;;;;;;;4.03;3.73;;;22.00;99.90;;;;;;5052219;28;20490;-78
2023/08/25 07:39:50;;;;;;;4.10;3.70;;;21.60;99.90;;;;;;5050401;28;20216;-78
2023/08/25 07:42:15;;;;;;;4.50;4.07;;;21.20;99.90;;;;;;5057948;28;20253;-82
2023/08/25 07:44:41;;;;;;;4.37;3.97;;;21.30;99.90;;;;;;5063443;28;20660;-82
2023/08/25 07:47:07;;;;;;;4.33;4.00;;;20.90;99.90;;;;;;5062080;28;20210;-81
2023/08/25 07:49:33;;;;;;;4.60;4.20;;;21.30;99.90;;;;;;5063940;28;20185;-81
2023/08/25 07:51:58;;;;;;;4.20;3.90;;;20.60;99.90;;;;;;5063171;28;20188;-81
2023/08/25 07:54:25;;;;;;;4.60;4.20;;;21.00;99.90;;;;;;5060433;28;20208;-80
2023/08/25 07:56:51;;;;;;;4.57;3.90;;;21.00;99.90;;;;;;5066675;28;20201;-80
2023/08/25 07:59:16;;;;;;;6.20;4.00;;;20.50;99.90;;;;;;5063130;28;20197;-80
2023/08/25 08:01:42;;;;;;;3.87;3.40;;;21.00;99.90;;;;;;5055581;28;20506;-81
2023/08/25 08:04:08;;;;;;;3.67;3.37;;;20.60;99.90;;;;;;5057609;28;20204;-81
2023/08/25 08:06:34;;;;;;;5.13;4.63;;;20.80;99.90;;;;;;5055929;28;20486;-78
2023/08/25 08:09:00;;;;;;;4.80;3.90;;;20.40;99.90;;;;;;5051970;28;20319;-79
2023/08/25 08:11:25;;;;;;;4.77;4.30;;;20.60;99.90;;;;;;5059800;28;20201;-81
2023/08/25 08:13:51;;;;;;;5.53;3.73;;;20.80;99.90;;;;;;5067028;28;20268;-81
2023/08/25 08:16:16;;;;;;;4.30;3.67;;;20.70;99.90;;;;;;5059301;28;20202;-81
2023/08/25 08:18:42;;;;;;;4.03;3.70;;;20.60;99.90;;;;;;5060281;28;20658;-81
2023/08/25 08:21:08;;;;;;;4.33;3.93;;;21.30;99.90;;;;;;5054907;28;20213;-79
2023/08/25 08:23:33;;;;;;;5.30;4.20;;;20.40;99.90;;;;;;5057511;28;20223;-80
2023/08/25 08:25:59;;;;;;;4.90;3.83;;;20.70;99.90;;;;;;5053278;28;20190;-80
2023/08/25 08:28:24;;;;;;;4.30;3.97;;;20.70;99.90;;;;;;5052569;28;20231;-80
2023/08/25 08:30:50;;;;;;;4.90;4.03;;;20.70;99.90;;;;;;5054062;28;20210;-80
2023/08/25 08:33:16;;;;;;;5.07;4.20;;;20.70;99.90;;;;;;5055525;28;20208;-82
2023/08/25 08:35:43;;;;;;;5.80;5.20;;;20.70;99.90;;;;;;5052307;28;20211;-83
2023/08/25 08:38:08;;;;;;;5.15;4.50;;;20.80;99.90;;;;;;5056248;28;20217;-80
2023/08/25 08:40:35;;;;;;;4.43;3.60;;;20.80;99.90;;;;;;5053863;28;20224;-80
2023/08/25 08:43:04;;;;;;;5.55;4.55;;;20.50;99.90;;;;;;5062037;28;20253;-80
2023/08/25 08:45:34;;;;;;;4.88;4.40;;;20.90;99.90;;;;;;5057219;28;21462;-80
2023/08/25 08:48:04;;;;;;;5.40;4.90;;;20.80;99.90;;;;;;5056752;28;21589;-78
2023/08/25 08:50:37;;;;;;;4.05;3.65;;;20.50;99.90;;;;;;5061413;28;20252;-79
2023/08/25 08:53:04;;;;;;;7.22;5.03;;;20.40;99.90;;;;;;5057964;28;20188;-81
2023/08/25 08:55:31;;;;;;;4.28;3.78;;;20.40;99.90;;;;;;5054752;28;20196;-80
2023/08/25 08:57:56;;;;;;;5.75;4.47;;;20.40;99.90;;;;;;5056355;28;20205;-80
2023/08/25 09:00:22;;;;;;;6.43;4.10;;;20.40;99.90;;;;;;5053400;28;20312;-81
2023/08/25 09:02:53;;;;;;;5.73;4.70;;;20.50;99.90;;;;;;5053517;28;20543;-81
2023/08/25 09:05:27;;;;;;;5.60;5.10;;;20.60;99.90;;;;;;5049713;28;20474;-80
2023/08/25 09:08:00;;;;;;;5.32;4.82;;;21.10;99.90;;;;;;5051989;28;20215;-81
2023/08/25 09:10:27;;;;;;;5.47;4.97;;;20.70;99.90;;;;;;5052430;28;20221;-80
2023/08/25 09:12:53;;;;;;;4.40;4.10;;;20.60;99.90;;;;;;5055864;28;20235;-79
2023/08/25 09:15:32;;;;;;;4.80;3.90;;;20.90;99.90;;;;;;5053843;28;20189;-79
2023/08/25 09:18:02;;;;;;;4.85;4.40;;;20.70;99.90;;;;;;5055807;28;20203;-79
2023/08/25 09:20:29;;;;;;;6.22;4.05;;;20.70;99.90;;;;;;5057281;28;20186;-78
2023/08/25 09:22:56;;;;;;;4.53;3.70;;;21.40;99.90;;;;;;5052325;28;20197;-78
2023/08/25 09:25:25;;;;;;;3.63;3.15;;;21.20;99.90;;;;;;5054110;28;20456;-79
2023/08/25 09:28:02;;;;;;;5.18;3.60;;;20.90;99.90;;;;;;5058960;28;20224;-80
2023/08/25 09:30:39;;;;;;;6.32;4.30;;;21.00;99.90;;;;;;5061640;28;20209;-81
2023/08/25 09:33:11;;;;;;;3.97;3.60;;;21.60;99.90;;;;;;5060612;28;20212;-81
2023/08/25 09:35:37;;;;;;;4.45;4.05;;;21.40;99.90;;;;;;5057224;28;20440;-80
2023/08/25 09:38:03;;;;;;;4.50;3.70;;;22.00;99.90;;;;;;5058894;28;20215;-81
2023/08/25 09:40:29;;;;;;;4.47;4.07;;;21.70;99.90;;;;;;5058443;28;20182;-81
2023/08/25 09:43:02;;;;;;;5.35;3.72;;;22.20;99.90;;;;;;5057189;28;20493;-81
2023/08/25 09:45:29;;;;;;;4.90;3.57;;;22.00;99.90;;;;;;5056578;28;20565;-81
2023/08/25 09:48:12;;;;;;;4.10;3.70;;;22.10;99.90;;;;;;5059833;28;20486;-81
2023/08/25 09:50:40;;;;;;;5.10;3.70;;;22.40;99.90;;;;;;5061203;28;20554;-81
2023/08/25 09:53:07;;;;;;;3.87;3.57;;;22.60;99.90;;;;;;5061940;28;20444;-81
2023/08/25 09:55:36;;;;;;;4.53;3.60;;;23.10;99.90;;;;;;5034750;28;20448;-82
2023/08/25 09:58:09;;;;;;;4.17;3.83;;;23.20;99.90;;;;;;5056401;28;20490;-82
2023/08/25 10:00:37;;;;;;;4.43;3.40;;;23.40;99.90;;;;;;5050335;28;20467;-78
2023/08/25 10:03:05;;;;;;;4.10;3.70;;;23.50;99.90;;;;;;5048845;28;20490;-84
2023/08/25 10:05:34;;;;;;;4.83;4.10;;;23.70;99.90;;;;;;5052838;28;20451;-84
2023/08/25 10:08:00;;;;;;;3.67;3.37;;;23.80;99.90;;;;;;5054334;28;21118;-83
2023/08/25 10:10:29;;;;;;;4.13;3.73;;;24.70;99.90;;;;;;5058754;28;21066;-82
2023/08/25 10:12:59;;;;;;;3.70;3.37;;;24.10;99.90;;;;;;5051749;28;20848;-82
2023/08/25 10:15:27;;;;;;;3.90;3.50;;;24.10;99.90;;;;;;5053705;28;20451;-83
2023/08/25 10:17:59;;;;;;;4.30;3.73;;;24.00;99.90;;;;;;5052485;28;20826;-84
2023/08/25 10:20:26;;;;;;;4.00;3.60;;;24.50;99.90;;;;;;5052135;28;21102;-83
2023/08/25 10:22:52;;;;;;;4.33;3.77;;;24.30;99.90;;;;;;5054066;28;20452;-84
2023/08/25 10:25:18;;;;;;;3.90;3.57;;;24.40;99.90;;;;;;5049240;28;20486;-84
2023/08/25 10:27:45;;;;;;;5.03;3.20;;;24.50;99.90;;;;;;5049653;28;20495;-83
2023/08/25 10:30:11;;;;;;;4.53;3.20;;;24.70;99.90;;;;;;5049240;28;20981;-84
2023/08/25 10:32:58;;;;;;;3.07;2.87;;;24.70;99.90;;;;;;5051643;28;20446;-84
2023/08/25 10:35:48;;;;;;;4.87;4.47;;;24.60;99.90;;;;;;5050864;28;20467;-84
2023/08/25 10:38:20;;;;;;;3.50;3.20;;;24.80;99.90;;;;;;5058009;28;20452;-84
2023/08/25 10:40:50;;;;;;;3.07;2.87;;;24.90;99.90;;;;;;5065783;28;20481;-85
2023/08/25 10:43:28;;;;;;;3.23;2.93;;;24.90;99.90;;;;;;5052791;28;20448;-83
2023/08/25 10:45:54;;;;;;;2.80;2.60;;;24.20;99.90;;;;;;5051860;28;20442;-84
2023/08/25 10:48:21;;;;;;;4.07;3.67;;;24.40;99.90;;;;;;5056454;28;20451;-84
2023/08/25 10:50:51;;;;;;;3.33;2.87;;;24.30;99.90;;;;;;5053253;28;20231;-83
2023/08/25 10:53:39;;;;;;;3.50;3.20;;;24.50;99.90;;;;;;5056047;28;20473;-83
2023/08/25 10:56:16;;;;;;;6.60;3.50;;;24.20;99.90;;;;;;5045598;28;20444;-84
2023/08/25 10:58:53;;;;;;;3.47;3.17;;;24.30;99.90;;;;;;5052770;28;20506;-84
2023/08/25 11:01:19;;;;;;;3.30;3.00;;;25.50;99.90;;;;;;5055016;28;20459;-84
2023/08/25 11:04:10;;;;;;;3.53;3.23;;;24.50;99.90;;;;;;5053148;28;20513;-84
2023/08/25 11:06:39;;;;;;;3.10;2.90;;;24.50;99.90;;;;;;5050204;28;20517;-84
2023/08/25 11:09:06;;;;;;;3.40;3.10;;;25.00;99.90;;;;;;5054167;28;20452;-84
2023/08/25 11:11:36;;;;;;;7.90;3.70;;;24.80;99.90;;;;;;5051279;28;20482;-85
2023/08/25 11:14:01;;;;;;;3.77;3.47;;;26.30;99.90;;;;;;5052135;28;20436;-84
2023/08/25 11:16:27;;;;;;;4.27;3.93;;;28.20;99.90;;;;;;5052151;28;20457;-84
2023/08/25 11:18:52;;;;;;;3.10;2.90;;;26.90;99.90;;;;;;5053837;28;20196;-84
2023/08/25 11:21:23;;;;;;;4.00;3.60;;;25.30;99.90;;;;;;5052609;28;20225;-84
2023/08/25 11:23:48;;;;;;;4.23;3.93;;;26.10;99.90;;;;;;5053089;28;20185;-84
2023/08/25 11:26:16;;;;;;;3.40;3.10;;;25.50;99.90;;;;;;5051897;28;20537;-84
2023/08/25 11:28:41;;;;;;;3.97;3.67;;;25.00;99.90;;;;;;5053372;28;20251;-84
2023/08/25 11:31:07;;;;;;;4.37;3.97;;;25.40;99.90;;;;;;5053715;28;20472;-84
2023/08/25 11:33:33;;;;;;;4.03;3.53;;;25.40;99.90;;;;;;5050234;28;20206;-84
2023/08/25 11:35:59;;;;;;;3.70;3.47;;;25.00;99.90;;;;;;5053593;28;20182;-84
2023/08/25 11:38:28;;;;;;;4.17;3.60;;;25.40;99.90;;;;;;5055832;28;20564;-84
2023/08/25 11:40:55;;;;;;;3.80;3.40;;;26.90;99.90;;;;;;5052498;28;20461;-84
2023/08/25 11:43:26;;;;;;;4.27;3.90;;;25.30;99.90;;;;;;5050511;28;20514;-84
2023/08/25 11:45:52;;;;;;;3.80;3.47;;;25.20;99.90;;;;;;5054761;28;20437;-84
2023/08/25 11:48:17;;;;;;;4.30;3.90;;;25.30;99.90;;;;;;5053036;28;20506;-84
2023/08/25 11:50:43;;;;;;;3.70;3.50;;;25.70;99.90;;;;;;5053287;28;20214;-84
2023/08/25 11:53:09;;;;;;;3.90;3.60;;;25.10;99.90;;;;;;5054701;28;20210;-84
2023/08/25 11:55:35;;;;;;;4.13;3.83;;;25.20;99.90;;;;;;5052961;28;20252;-84
2023/08/25 11:58:09;;;;;;;5.90;4.47;;;25.20;99.90;;;;;;5052668;28;20458;-83
2023/08/25 12:00:37;;;;;;;4.13;3.73;;;25.30;99.90;;;;;;5053258;28;20218;-84
2023/08/25 12:03:03;;;;;;;4.77;4.20;;;25.40;99.90;;;;;;5053597;28;20473;-84
2023/08/25 12:05:30;;;;;;;4.83;3.80;;;25.60;99.90;;;;;;5036461;28;20717;-83
2023/08/25 12:08:00;;;;;;;5.17;3.97;;;26.10;99.90;;;;;;5056602;28;20208;-84
2023/08/25 12:10:26;;;;;;;4.63;4.00;;;26.10;99.90;;;;;;5054382;28;20475;-84
2023/08/25 12:12:53;;;;;;;5.13;4.60;;;26.40;99.90;;;;;;5057897;28;20478;-83
2023/08/25 12:15:18;;;;;;;4.87;4.27;;;26.60;99.90;;;;;;5068078;28;20184;-84
2023/08/25 12:17:47;;;;;;;5.50;4.50;;;26.20;99.90;;;;;;5070399;28;20549;-84
2023/08/25 12:20:17;;;;;;;4.93;4.53;;;26.30;99.90;;;;;;5070043;28;20175;-84
2023/08/25 12:22:57;;;;;;;5.23;4.73;;;26.00;99.90;;;;;;5062371;28;20453;-83
2023/08/25 12:25:23;;;;;;;4.67;4.37;;;26.00;99.90;;;;;;5066016;28;20452;-84
2023/08/25 12:27:50;;;;;;;4.30;3.93;;;26.30;99.90;;;;;;5071180;28;20475;-84
2023/08/25 12:30:19;;;;;;;5.00;4.50;;;26.00;99.90;;;;;;5068562;28;20211;-84
2023/08/25 12:32:44;;;;;;;6.60;4.93;;;26.00;99.90;;;;;;5054521;28;20434;-84
2023/08/25 12:35:24;;;;;;;5.23;4.70;;;25.80;99.90;;;;;;5052872;28;20477;-84
2023/08/25 12:37:51;;;;;;;4.50;4.20;;;26.60;99.90;;;;;;5036303;23;20260;-62
2023/08/25 12:40:20;;;;;;;5.70;4.60;;;25.90;99.90;;;;;;5023458;28;20791;-61
2023/08/25 12:42:48;;;;;;;4.57;4.10;;;26.00;99.90;;;;;;5026760;28;20450;-62
2023/08/25 12:45:14;;;;;;;4.73;4.33;;;25.90;99.90;;;;;;5025588;28;20867;-62
2023/08/25 12:47:40;;;;;;;4.47;4.17;;;25.90;99.90;;;;;;5022281;28;20467;-61
2023/08/25 12:50:06;;;;;;;4.67;4.37;;;26.00;99.90;;;;;;5026510;28;20506;-61